Cartwright, Canada
Current Conditions -  °F | °C
As of 11:00 AM on Thursday 18 Dec 2014 (Local Time) from CWCA Reporting Station
Broken Clouds Broken Clouds  
Wind Chill:   Ceiling: 10000
Heat Index: 18°   Visibility: 15mi
Dew Point: 12°   Wind: 6mph
Humidity: 79%   Direction: 190°S
Pressure: 30.03"   Gusts: NA
Location:  53.7°N, 57.03°W
Report Text: CWCA 181500Z 19005KT 15SM FEW090 BKN100 BKN200 M08/M11 A3003 RMK AC1AS5CS1 TRAC SLP171
Loading
Personal Weather Stations






























Interactive Weather Map New forecast layout! Learn more

10-Day Weather Forecast

Advertisements
Track Severe Weather on mobile